createdAt,value
2022-10-28T00:04:00.362Z,8.70
2022-10-28T00:06:35.634Z,9.20
2022-10-28T00:09:08.175Z,8.90
2022-10-28T00:11:39.671Z,9.40
2022-10-28T00:14:08.151Z,9.40
2022-10-28T00:16:38.274Z,8.50
2022-10-28T00:19:10.366Z,9.20
2022-10-28T00:21:41.319Z,8.80
2022-10-28T00:24:13.023Z,8.60
2022-10-28T00:26:43.258Z,9.50
2022-10-28T00:29:18.000Z,9.70
2022-10-28T00:31:47.282Z,8.50
2022-10-28T00:34:19.972Z,9.50
2022-10-28T00:36:48.855Z,8.00
2022-10-28T00:39:21.458Z,8.80
2022-10-28T00:41:56.364Z,9.20
2022-10-28T00:44:54.134Z,8.60
2022-10-28T00:47:56.055Z,9.20
2022-10-28T00:50:51.660Z,8.10
2022-10-28T00:53:26.941Z,8.70
2022-10-28T00:55:58.405Z,9.10
2022-10-28T00:58:27.917Z,8.90
2022-10-28T01:00:56.728Z,9.00
2022-10-28T01:03:25.491Z,8.70
2022-10-28T01:05:53.718Z,8.80
2022-10-28T01:08:21.762Z,9.00
2022-10-28T01:11:31.179Z,7.70
2022-10-28T01:14:47.688Z,8.80
2022-10-28T01:17:32.134Z,8.20
2022-10-28T01:20:45.278Z,8.50
2022-10-28T01:23:56.827Z,8.30
2022-10-28T01:26:45.415Z,8.40
2022-10-28T01:29:47.047Z,7.60
2022-10-28T01:33:06.522Z,8.70
2022-10-28T01:35:48.643Z,8.10
2022-10-28T01:38:40.588Z,7.40
2022-10-28T01:41:21.813Z,7.90
2022-10-28T01:44:10.623Z,8.50
2022-10-28T01:46:51.905Z,8.40
2022-10-28T01:49:29.386Z,7.50
2022-10-28T01:52:06.460Z,8.00
2022-10-28T01:54:36.126Z,8.00
2022-10-28T01:57:06.000Z,8.50
2022-10-28T01:59:35.823Z,7.20
2022-10-28T02:02:03.934Z,8.00
2022-10-28T02:04:31.859Z,8.40
2022-10-28T02:07:01.554Z,7.00
2022-10-28T02:09:58.080Z,7.70
2022-10-28T02:12:38.974Z,7.50
2022-10-28T02:15:28.418Z,7.30
2022-10-28T02:18:08.508Z,7.70
2022-10-28T02:20:59.933Z,7.80
2022-10-28T02:23:37.258Z,7.70
2022-10-28T02:26:37.001Z,7.40
2022-10-28T02:29:18.206Z,8.30
2022-10-28T02:32:07.252Z,7.70
2022-10-28T02:34:44.971Z,7.80
2022-10-28T02:37:24.105Z,7.60
2022-10-28T02:39:58.101Z,8.30
2022-10-28T02:42:33.120Z,7.80
2022-10-28T02:45:15.104Z,7.40
2022-10-28T02:47:53.947Z,7.30
2022-10-28T02:50:34.945Z,6.70
2022-10-28T02:53:13.608Z,7.10
2022-10-28T02:55:45.970Z,7.30
2022-10-28T02:58:13.854Z,6.90
2022-10-28T03:00:46.707Z,7.20
2022-10-28T03:03:14.717Z,7.20
2022-10-28T03:05:42.517Z,7.10
2022-10-28T03:08:10.494Z,7.50
2022-10-28T03:10:38.464Z,6.60
2022-10-28T03:13:06.435Z,7.30
2022-10-28T03:15:34.670Z,8.30
2022-10-28T03:18:02.680Z,7.40
2022-10-28T03:20:30.534Z,6.90
2022-10-28T03:22:59.486Z,7.50
2022-10-28T03:25:27.506Z,6.40
2022-10-28T03:27:55.435Z,6.90
2022-10-28T03:30:23.661Z,6.80
2022-10-28T03:32:52.025Z,7.80
2022-10-28T03:35:20.307Z,6.90
2022-10-28T03:37:48.892Z,6.90
2022-10-28T03:40:17.577Z,6.70
2022-10-28T03:42:45.856Z,7.40
2022-10-28T03:45:13.818Z,7.00
2022-10-28T03:47:43.068Z,6.60
2022-10-28T03:50:11.503Z,6.30
2022-10-28T03:52:39.504Z,6.80
2022-10-28T03:55:08.268Z,7.00
2022-10-28T03:57:36.638Z,6.70
2022-10-28T04:00:06.575Z,6.90
2022-10-28T04:02:39.831Z,7.70
2022-10-28T04:05:08.332Z,7.40
2022-10-28T04:07:36.228Z,6.70
2022-10-28T04:10:04.414Z,7.10
2022-10-28T04:12:32.326Z,7.10
2022-10-28T04:15:00.420Z,6.60
2022-10-28T04:17:28.590Z,7.30
2022-10-28T04:19:57.277Z,6.80
2022-10-28T04:22:25.346Z,6.70
2022-10-28T04:24:54.760Z,7.00
2022-10-28T04:27:23.021Z,7.60
2022-10-28T04:29:50.997Z,6.80
2022-10-28T04:32:18.949Z,6.20
2022-10-28T04:34:46.900Z,6.80
2022-10-28T04:37:18.354Z,5.90
2022-10-28T04:39:49.016Z,6.60
2022-10-28T04:42:16.885Z,7.10
2022-10-28T04:44:45.189Z,6.10
2022-10-28T04:47:13.437Z,6.20
2022-10-28T04:49:41.217Z,6.60
2022-10-28T04:52:13.352Z,6.70
2022-10-28T04:54:43.901Z,6.20
2022-10-28T04:57:11.768Z,5.90
2022-10-28T04:59:39.605Z,6.30
2022-10-28T05:02:07.646Z,6.70
2022-10-28T05:04:35.880Z,7.00
2022-10-28T05:07:03.747Z,6.20
2022-10-28T05:09:31.690Z,6.40
2022-10-28T05:11:59.584Z,6.60
2022-10-28T05:14:27.516Z,6.90
2022-10-28T05:16:55.522Z,6.30
2022-10-28T05:19:23.713Z,6.20
2022-10-28T05:21:51.654Z,6.30
2022-10-28T05:24:19.669Z,7.00
2022-10-28T05:26:47.458Z,6.40
2022-10-28T05:29:15.485Z,6.80
2022-10-28T05:31:43.339Z,6.70
2022-10-28T05:34:11.132Z,6.30
2022-10-28T05:36:39.086Z,6.10
2022-10-28T05:39:07.042Z,6.00
2022-10-28T05:41:38.673Z,5.50
2022-10-28T05:44:06.872Z,6.10
2022-10-28T05:46:35.252Z,6.20
2022-10-28T05:49:04.551Z,6.60
2022-10-28T05:51:32.525Z,5.90
2022-10-28T05:54:00.486Z,6.00
2022-10-28T05:56:28.689Z,6.30
2022-10-28T05:58:56.967Z,6.20
2022-10-28T06:01:25.365Z,6.30
2022-10-28T06:03:53.425Z,6.50
2022-10-28T06:06:21.874Z,5.70
2022-10-28T06:08:49.945Z,6.00
2022-10-28T06:11:18.126Z,6.40
2022-10-28T06:13:46.398Z,5.80
2022-10-28T06:16:14.386Z,5.90
2022-10-28T06:18:44.039Z,5.60
2022-10-28T06:21:12.366Z,5.60
2022-10-28T06:23:40.553Z,5.70
2022-10-28T06:26:08.939Z,5.80
2022-10-28T06:28:36.891Z,6.60
2022-10-28T06:31:10.707Z,5.60
2022-10-28T06:33:38.672Z,5.60
2022-10-28T06:36:07.676Z,5.20
2022-10-28T06:38:35.844Z,5.40
2022-10-28T06:41:04.326Z,5.40
2022-10-28T06:43:32.620Z,5.30
2022-10-28T06:46:04.542Z,6.10
2022-10-28T06:48:34.055Z,5.60
2022-10-28T06:51:02.345Z,4.90
2022-10-28T06:53:31.576Z,4.90
2022-10-28T06:55:59.820Z,5.30
2022-10-28T06:58:27.890Z,4.60
2022-10-28T07:01:04.753Z,5.10
2022-10-28T07:03:48.674Z,5.20
2022-10-28T07:06:18.039Z,5.80
2022-10-28T07:08:45.986Z,5.00
2022-10-28T07:11:13.918Z,5.50
2022-10-28T07:13:44.252Z,5.20
2022-10-28T07:16:14.539Z,4.80
2022-10-28T07:18:43.223Z,5.10
